sensor_id;sensor_type;location;lat;lon;timestamp;noise_LAeq;noise_LA_min;noise_LA_max;noise_LA01;noise_LA95
67310;Laerm;65444;51.438;5.982;2024-01-15T00:00:08;44.72;33.08;58.02;;
67310;Laerm;65444;51.438;5.982;2024-01-15T00:00:25;48.13;33.30;58.44;;
67310;Laerm;65444;51.438;5.982;2024-01-15T00:00:56;37.52;31.79;53.56;;
67310;Laerm;65444;51.438;5.982;2024-01-15T00:01:27;36.22;31.07;49.28;;
67310;Laerm;65444;51.438;5.982;2024-01-15T00:01:46;33.43;31.67;38.19;;
67310;Laerm;65444;51.438;5.982;2024-01-15T00:02:06;38.83;32.88;47.86;;
67310;Laerm;65444;51.438;5.982;2024-01-15T00:02:20;38.29;32.64;49.07;;
67310;Laerm;65444;51.438;5.982;2024-01-15T00:02:32;37.91;33.22;51.67;;
67310;Laerm;65444;51.438;5.982;2024-01-15T00:02:43;39.75;31.96;51.39;;
67310;Laerm;65444;51.438;5.982;2024-01-15T00:02:59;44.74;32.39;58.41;;
67310;Laerm;65444;51.438;5.982;2024-01-15T00:03:15;44.24;31.88;60.59;;
67310;Laerm;65444;51.438;5.982;2024-01-15T00:03:40;33.56;31.19;40.30;;
67310;Laerm;65444;51.438;5.982;2024-01-15T00:03:54;36.31;30.94;51.18;;
67310;Laerm;65444;51.438;5.982;2024-01-15T00:04:11;33.79;30.99;41.91;;
67310;Laerm;65444;51.438;5.982;2024-01-15T00:05:31;41.10;30.50;67.64;;
67310;Laerm;65444;51.438;5.982;2024-01-15T00:06:38;37.09;30.66;53.54;;
67310;Laerm;65444;51.438;5.982;2024-01-15T00:06:52;33.88;31.16;40.52;;
67310;Laerm;65444;51.438;5.982;2024-01-15T00:10:02;36.58;31.19;51.64;;
67310;Laerm;65444;51.438;5.982;2024-01-15T00:10:22;48.62;34.09;60.31;;
67310;Laerm;65444;51.438;5.982;2024-01-15T00:11:02;46.23;30.77;63.95;;
67310;Laerm;65444;51.438;5.982;2024-01-15T00:11:15;33.08;31.53;37.23;;
67310;Laerm;65444;51.438;5.982;2024-01-15T00:11:42;35.77;30.97;50.19;;
67310;Laerm;65444;51.438;5.982;2024-01-15T00:11:57;33.53;31.04;39.57;;
67310;Laerm;65444;51.438;5.982;2024-01-15T00:12:14;33.71;30.65;39.67;;
67310;Laerm;65444;51.438;5.982;2024-01-15T00:12:39;38.86;31.02;50.40;;
67310;Laerm;65444;51.438;5.982;2024-01-15T00:12:51;41.36;31.25;54.73;;
67310;Laerm;65444;51.438;5.982;2024-01-15T00:13:12;40.83;30.78;50.15;;
67310;Laerm;65444;51.438;5.982;2024-01-15T00:13:23;39.67;31.26;59.60;;
67310;Laerm;65444;51.438;5.982;2024-01-15T00:13:45;47.73;32.65;59.72;;
67310;Laerm;65444;51.438;5.982;2024-01-15T00:14:40;44.67;32.08;66.40;;
67310;Laerm;65444;51.438;5.982;2024-01-15T00:14:53;35.95;32.20;40.65;;
67310;Laerm;65444;51.438;5.982;2024-01-15T00:15:25;35.18;31.91;42.57;;
67310;Laerm;65444;51.438;5.982;2024-01-15T00:16:02;36.26;30.88;55.61;;
67310;Laerm;65444;51.438;5.982;2024-01-15T00:16:22;33.10;30.10;42.49;;
67310;Laerm;65444;51.438;5.982;2024-01-15T00:17:29;36.52;31.60;52.90;;
67310;Laerm;65444;51.438;5.982;2024-01-15T00:18:27;41.56;30.35;67.07;;
67310;Laerm;65444;51.438;5.982;2024-01-15T00:19:09;32.56;30.51;39.04;;
67310;Laerm;65444;51.438;5.982;2024-01-15T00:19:29;33.33;31.37;38.08;;
67310;Laerm;65444;51.438;5.982;2024-01-15T00:25:18;34.80;30.61;46.06;;
67310;Laerm;65444;51.438;5.982;2024-01-15T00:26:07;33.39;30.78;42.90;;
67310;Laerm;65444;51.438;5.982;2024-01-15T00:26:35;39.64;30.37;59.60;;
67310;Laerm;65444;51.438;5.982;2024-01-15T00:27:35;44.75;31.11;67.25;;
67310;Laerm;65444;51.438;5.982;2024-01-15T00:28:04;36.10;30.89;48.85;;
67310;Laerm;65444;51.438;5.982;2024-01-15T00:28:15;38.99;32.92;46.89;;
67310;Laerm;65444;51.438;5.982;2024-01-15T00:30:27;39.31;31.94;57.76;;
67310;Laerm;65444;51.438;5.982;2024-01-15T00:31:04;39.74;32.32;66.57;;
67310;Laerm;65444;51.438;5.982;2024-01-15T00:31:41;43.03;34.35;67.44;;
67310;Laerm;65444;51.438;5.982;2024-01-15T00:31:58;45.63;36.29;61.84;;
67310;Laerm;65444;51.438;5.982;2024-01-15T00:32:23;45.22;36.02;65.01;;
67310;Laerm;65444;51.438;5.982;2024-01-15T00:32:52;42.04;36.36;59.74;;
67310;Laerm;65444;51.438;5.982;2024-01-15T00:33:34;51.46;42.54;60.15;;
67310;Laerm;65444;51.438;5.982;2024-01-15T00:33:51;46.60;41.92;53.76;;
67310;Laerm;65444;51.438;5.982;2024-01-15T00:34:03;43.68;35.26;64.75;;
67310;Laerm;65444;51.438;5.982;2024-01-15T00:34:16;38.35;33.50;51.62;;
67310;Laerm;65444;51.438;5.982;2024-01-15T00:34:37;36.53;32.61;53.13;;
67310;Laerm;65444;51.438;5.982;2024-01-15T00:34:47;43.43;33.51;57.50;;
67310;Laerm;65444;51.438;5.982;2024-01-15T00:35:16;44.59;34.24;60.07;;
67310;Laerm;65444;51.438;5.982;2024-01-15T00:35:29;41.17;32.73;67.53;;
67310;Laerm;65444;51.438;5.982;2024-01-15T00:35:42;39.40;32.92;52.45;;
67310;Laerm;65444;51.438;5.982;2024-01-15T00:35:55;34.49;31.88;45.93;;
67310;Laerm;65444;51.438;5.982;2024-01-15T00:36:06;43.27;31.61;57.97;;
67310;Laerm;65444;51.438;5.982;2024-01-15T00:36:26;40.82;32.25;59.70;;
67310;Laerm;65444;51.438;5.982;2024-01-15T00:36:45;42.13;32.70;60.80;;
67310;Laerm;65444;51.438;5.982;2024-01-15T00:36:59;34.42;31.16;48.31;;
67310;Laerm;65444;51.438;5.982;2024-01-15T00:37:12;32.69;30.80;38.41;;
67310;Laerm;65444;51.438;5.982;2024-01-15T00:37:36;36.16;31.11;56.93;;
67310;Laerm;65444;51.438;5.982;2024-01-15T00:37:59;42.53;30.91;63.06;;
67310;Laerm;65444;51.438;5.982;2024-01-15T00:38:09;44.10;31.20;61.09;;
67310;Laerm;65444;51.438;5.982;2024-01-15T00:38:26;34.79;31.60;43.23;;
67310;Laerm;65444;51.438;5.982;2024-01-15T00:38:38;34.26;31.05;49.32;;
67310;Laerm;65444;51.438;5.982;2024-01-15T00:38:49;36.79;31.47;55.58;;
67310;Laerm;65444;51.438;5.982;2024-01-15T00:39:22;37.53;31.47;56.49;;
67310;Laerm;65444;51.438;5.982;2024-01-15T00:39:36;39.73;31.02;51.58;;
67310;Laerm;65444;51.438;5.982;2024-01-15T00:39:58;39.02;31.68;54.85;;
67310;Laerm;65444;51.438;5.982;2024-01-15T00:40:17;35.14;31.81;42.87;;
67310;Laerm;65444;51.438;5.982;2024-01-15T00:40:39;38.03;32.26;54.53;;
67310;Laerm;65444;51.438;5.982;2024-01-15T00:41:09;38.72;31.77;56.68;;
67310;Laerm;65444;51.438;5.982;2024-01-15T00:41:19;35.35;31.75;45.09;;
67310;Laerm;65444;51.438;5.982;2024-01-15T00:41:39;34.31;31.67;44.11;;
67310;Laerm;65444;51.438;5.982;2024-01-15T00:41:49;36.25;31.83;48.34;;
67310;Laerm;65444;51.438;5.982;2024-01-15T00:42:18;33.87;31.40;41.16;;
67310;Laerm;65444;51.438;5.982;2024-01-15T00:42:29;38.42;31.22;55.30;;
67310;Laerm;65444;51.438;5.982;2024-01-15T00:43:19;36.71;31.40;50.04;;
67310;Laerm;65444;51.438;5.982;2024-01-15T00:43:34;34.58;31.32;48.65;;
67310;Laerm;65444;51.438;5.982;2024-01-15T00:44:01;37.61;32.29;53.58;;
67310;Laerm;65444;51.438;5.982;2024-01-15T00:44:26;34.43;31.36;47.03;;
67310;Laerm;65444;51.438;5.982;2024-01-15T00:44:36;33.75;31.62;39.16;;
67310;Laerm;65444;51.438;5.982;2024-01-15T00:44:49;34.37;31.67;43.11;;
67310;Laerm;65444;51.438;5.982;2024-01-15T00:45:03;34.18;32.02;40.40;;
67310;Laerm;65444;51.438;5.982;2024-01-15T00:45:31;37.80;31.33;51.22;;
67310;Laerm;65444;51.438;5.982;2024-01-15T00:45:44;32.91;30.99;42.91;;
67310;Laerm;65444;51.438;5.982;2024-01-15T00:46:19;32.77;30.47;41.01;;
67310;Laerm;65444;51.438;5.982;2024-01-15T00:46:45;33.23;30.72;42.16;;
67310;Laerm;65444;51.438;5.982;2024-01-15T00:46:56;34.27;31.32;51.60;;
67310;Laerm;65444;51.438;5.982;2024-01-15T00:47:12;33.26;31.29;41.06;;
67310;Laerm;65444;51.438;5.982;2024-01-15T00:47:40;33.12;30.84;44.72;;
67310;Laerm;65444;51.438;5.982;2024-01-15T00:48:07;38.27;31.27;55.81;;
67310;Laerm;65444;51.438;5.982;2024-01-15T00:48:34;40.78;31.05;55.77;;
67310;Laerm;65444;51.438;5.982;2024-01-15T00:48:58;34.31;31.05;42.50;;
67310;Laerm;65444;51.438;5.982;2024-01-15T00:49:23;33.69;30.79;43.18;;
67310;Laerm;65444;51.438;5.982;2024-01-15T00:49:34;44.00;30.59;65.26;;
67310;Laerm;65444;51.438;5.982;2024-01-15T00:49:45;33.50;30.94;38.51;;
67310;Laerm;65444;51.438;5.982;2024-01-15T00:50:00;35.93;30.78;47.93;;
67310;Laerm;65444;51.438;5.982;2024-01-15T00:50:14;40.05;31.64;53.47;;
67310;Laerm;65444;51.438;5.982;2024-01-15T00:51:54;34.48;31.17;45.61;;
67310;Laerm;65444;51.438;5.982;2024-01-15T00:52:08;45.65;32.68;58.39;;
67310;Laerm;65444;51.438;5.982;2024-01-15T00:52:19;38.75;32.72;50.93;;
67310;Laerm;65444;51.438;5.982;2024-01-15T00:52:32;39.43;32.64;53.03;;
67310;Laerm;65444;51.438;5.982;2024-01-15T00:52:50;36.31;33.07;42.57;;
67310;Laerm;65444;51.438;5.982;2024-01-15T00:53:12;37.59;34.44;45.19;;
67310;Laerm;65444;51.438;5.982;2024-01-15T00:53:29;40.99;34.63;47.14;;
67310;Laerm;65444;51.438;5.982;2024-01-15T00:53:45;49.16;44.46;53.21;;
67310;Laerm;65444;51.438;5.982;2024-01-15T00:54:10;52.17;49.68;54.28;;
67310;Laerm;65444;51.438;5.982;2024-01-15T00:54:29;46.93;38.48;57.72;;
67310;Laerm;65444;51.438;5.982;2024-01-15T00:54:45;38.85;33.95;50.36;;
67310;Laerm;65444;51.438;5.982;2024-01-15T00:55:16;39.14;33.98;49.10;;
67310;Laerm;65444;51.438;5.982;2024-01-15T00:55:45;36.44;32.20;43.94;;
67310;Laerm;65444;51.438;5.982;2024-01-15T00:56:08;35.61;32.29;40.03;;
67310;Laerm;65444;51.438;5.982;2024-01-15T00:56:21;36.23;32.13;43.72;;
67310;Laerm;65444;51.438;5.982;2024-01-15T00:56:43;38.11;32.18;50.88;;
67310;Laerm;65444;51.438;5.982;2024-01-15T00:56:56;35.29;31.74;46.55;;
67310;Laerm;65444;51.438;5.982;2024-01-15T00:57:22;36.95;32.90;46.52;;
67310;Laerm;65444;51.438;5.982;2024-01-15T00:57:51;37.20;33.03;42.64;;
67310;Laerm;65444;51.438;5.982;2024-01-15T00:58:48;32.96;30.18;43.26;;
67310;Laerm;65444;51.438;5.982;2024-01-15T00:58:59;38.73;32.33;46.44;;
67310;Laerm;65444;51.438;5.982;2024-01-15T00:59:30;34.79;30.92;42.82;;
67310;Laerm;65444;51.438;5.982;2024-01-15T00:59:40;34.58;30.89;40.16;;
67310;Laerm;65444;51.438;5.982;2024-01-15T01:00:32;38.03;30.80;45.74;;
67310;Laerm;65444;51.438;5.982;2024-01-15T01:00:51;36.76;31.02;53.09;;
67310;Laerm;65444;51.438;5.982;2024-01-15T01:01:13;32.54;30.55;39.70;;
67310;Laerm;65444;51.438;5.982;2024-01-15T01:02:44;37.08;30.41;56.35;;
67310;Laerm;65444;51.438;5.982;2024-01-15T01:04:05;34.35;30.79;45.31;;
67310;Laerm;65444;51.438;5.982;2024-01-15T01:04:17;32.96;30.34;39.05;;
67310;Laerm;65444;51.438;5.982;2024-01-15T01:04:37;32.46;30.45;36.42;;
67310;Laerm;65444;51.438;5.982;2024-01-15T01:05:03;35.96;30.85;49.20;;
67310;Laerm;65444;51.438;5.982;2024-01-15T01:05:26;32.82;30.50;36.72;;
67310;Laerm;65444;51.438;5.982;2024-01-15T01:05:40;39.34;31.00;57.10;;
67310;Laerm;65444;51.438;5.982;2024-01-15T01:06:00;44.33;31.18;60.53;;
67310;Laerm;65444;51.438;5.982;2024-01-15T01:06:14;33.61;30.19;45.70;;
67310;Laerm;65444;51.438;5.982;2024-01-15T01:06:30;46.73;31.30;63.40;;
67310;Laerm;65444;51.438;5.982;2024-01-15T01:06:44;35.54;31.45;48.34;;
67310;Laerm;65444;51.438;5.982;2024-01-15T01:07:04;38.35;30.97;57.57;;
67310;Laerm;65444;51.438;5.982;2024-01-15T01:07:16;32.84;30.26;38.85;;
67310;Laerm;65444;51.438;5.982;2024-01-15T01:07:35;38.45;31.18;52.30;;
67310;Laerm;65444;51.438;5.982;2024-01-15T01:07:56;35.88;30.45;51.94;;
67310;Laerm;65444;51.438;5.982;2024-01-15T01:08:13;31.85;30.31;37.17;;
67310;Laerm;65444;51.438;5.982;2024-01-15T01:08:32;37.45;30.19;51.16;;
67310;Laerm;65444;51.438;5.982;2024-01-15T01:08:54;37.19;30.72;50.23;;
67310;Laerm;65444;51.438;5.982;2024-01-15T01:09:08;39.70;30.82;56.97;;
67310;Laerm;65444;51.438;5.982;2024-01-15T01:09:18;38.98;30.45;50.48;;
67310;Laerm;65444;51.438;5.982;2024-01-15T01:09:48;38.77;29.95;55.00;;
67310;Laerm;65444;51.438;5.982;2024-01-15T01:10:29;34.79;30.18;47.47;;
67310;Laerm;65444;51.438;5.982;2024-01-15T01:12:02;36.20;30.21;52.59;;
67310;Laerm;65444;51.438;5.982;2024-01-15T01:12:22;34.96;30.12;45.42;;
67310;Laerm;65444;51.438;5.982;2024-01-15T01:12:35;33.51;30.06;44.93;;
67310;Laerm;65444;51.438;5.982;2024-01-15T01:12:47;33.89;30.06;41.61;;
67310;Laerm;65444;51.438;5.982;2024-01-15T01:13:04;31.92;30.20;35.53;;
67310;Laerm;65444;51.438;5.982;2024-01-15T01:13:15;33.08;30.34;39.69;;
67310;Laerm;65444;51.438;5.982;2024-01-15T01:13:42;39.48;30.59;56.67;;
67310;Laerm;65444;51.438;5.982;2024-01-15T01:14:05;34.57;30.82;45.17;;
67310;Laerm;65444;51.438;5.982;2024-01-15T01:14:50;38.75;30.98;52.17;;
67310;Laerm;65444;51.438;5.982;2024-01-15T01:15:42;33.09;30.13;43.62;;
67310;Laerm;65444;51.438;5.982;2024-01-15T01:16:05;33.01;30.43;38.25;;
67310;Laerm;65444;51.438;5.982;2024-01-15T01:16:53;37.95;31.59;55.19;;
67310;Laerm;65444;51.438;5.982;2024-01-15T01:17:10;41.96;31.91;57.02;;
67310;Laerm;65444;51.438;5.982;2024-01-15T01:17:28;32.80;30.76;40.19;;
67310;Laerm;65444;51.438;5.982;2024-01-15T01:17:51;33.26;30.60;46.14;;
67310;Laerm;65444;51.438;5.982;2024-01-15T01:18:09;45.05;31.21;64.48;;
67310;Laerm;65444;51.438;5.982;2024-01-15T01:18:32;33.80;31.01;40.92;;
67310;Laerm;65444;51.438;5.982;2024-01-15T01:18:45;34.80;31.43;43.33;;
67310;Laerm;65444;51.438;5.982;2024-01-15T01:19:13;34.99;32.18;44.25;;
67310;Laerm;65444;51.438;5.982;2024-01-15T01:19:51;45.48;33.16;52.21;;
67310;Laerm;65444;51.438;5.982;2024-01-15T01:20:05;49.70;46.16;52.79;;
67310;Laerm;65444;51.438;5.982;2024-01-15T01:20:21;45.58;41.57;50.02;;
67310;Laerm;65444;51.438;5.982;2024-01-15T01:20:38;42.98;38.41;54.87;;
67310;Laerm;65444;51.438;5.982;2024-01-15T01:20:51;38.51;34.82;43.35;;
67310;Laerm;65444;51.438;5.982;2024-01-15T01:21:25;38.25;35.09;42.75;;
67310;Laerm;65444;51.438;5.982;2024-01-15T01:21:50;40.69;34.93;55.33;;
67310;Laerm;65444;51.438;5.982;2024-01-15T01:22:02;37.29;34.06;45.60;;
67310;Laerm;65444;51.438;5.982;2024-01-15T01:22:25;37.23;32.93;49.69;;
67310;Laerm;65444;51.438;5.982;2024-01-15T01:22:56;36.33;31.93;48.55;;
67310;Laerm;65444;51.438;5.982;2024-01-15T01:23:53;34.33;30.56;45.80;;
67310;Laerm;65444;51.438;5.982;2024-01-15T01:24:21;33.15;30.65;43.67;;
67310;Laerm;65444;51.438;5.982;2024-01-15T01:24:34;32.41;30.80;36.24;;
67310;Laerm;65444;51.438;5.982;2024-01-15T01:24:47;32.31;30.46;35.18;;
67310;Laerm;65444;51.438;5.982;2024-01-15T01:24:58;32.24;30.43;35.96;;
67310;Laerm;65444;51.438;5.982;2024-01-15T01:25:16;32.48;30.58;35.48;;
67310;Laerm;65444;51.438;5.982;2024-01-15T01:25:29;35.68;30.81;45.54;;
67310;Laerm;65444;51.438;5.982;2024-01-15T01:25:49;34.16;30.70;48.99;;
67310;Laerm;65444;51.438;5.982;2024-01-15T01:26:12;33.81;30.24;49.02;;
67310;Laerm;65444;51.438;5.982;2024-01-15T01:26:34;34.67;30.40;48.94;;
67310;Laerm;65444;51.438;5.982;2024-01-15T01:26:45;33.08;30.63;42.04;;
67310;Laerm;65444;51.438;5.982;2024-01-15T01:27:05;34.34;31.03;43.84;;
67310;Laerm;65444;51.438;5.982;2024-01-15T01:27:51;40.89;30.80;57.86;;
67310;Laerm;65444;51.438;5.982;2024-01-15T01:28:01;35.90;30.80;47.28;;
67310;Laerm;65444;51.438;5.982;2024-01-15T01:28:15;36.57;30.89;53.42;;
67310;Laerm;65444;51.438;5.982;2024-01-15T01:28:28;36.15;30.61;49.38;;
67310;Laerm;65444;51.438;5.982;2024-01-15T01:28:38;32.89;30.69;40.64;;
67310;Laerm;65444;51.438;5.982;2024-01-15T01:29:02;32.38;30.37;38.61;;
67310;Laerm;65444;51.438;5.982;2024-01-15T01:29:15;34.92;30.32;43.60;;
67310;Laerm;65444;51.438;5.982;2024-01-15T01:29:38;38.41;31.34;54.11;;
67310;Laerm;65444;51.438;5.982;2024-01-15T01:29:48;32.51;30.69;35.35;;
67310;Laerm;65444;51.438;5.982;2024-01-15T01:31:14;35.78;30.54;52.69;;
67310;Laerm;65444;51.438;5.982;2024-01-15T01:31:30;47.25;30.87;59.63;;
67310;Laerm;65444;51.438;5.982;2024-01-15T01:32:10;41.34;30.59;56.95;;
67310;Laerm;65444;51.438;5.982;2024-01-15T01:32:21;33.10;30.47;41.63;;
67310;Laerm;65444;51.438;5.982;2024-01-15T01:32:34;34.47;31.17;43.03;;
67310;Laerm;65444;51.438;5.982;2024-01-15T01:32:46;32.81;30.68;38.73;;
67310;Laerm;65444;51.438;5.982;2024-01-15T01:32:57;32.55;30.97;35.69;;
67310;Laerm;65444;51.438;5.982;2024-01-15T01:33:16;32.96;31.63;36.77;;
67310;Laerm;65444;51.438;5.982;2024-01-15T01:34:17;41.41;30.14;61.32;;
67310;Laerm;65444;51.438;5.982;2024-01-15T01:34:41;33.23;30.44;43.48;;
67310;Laerm;65444;51.438;5.982;2024-01-15T01:35:13;34.26;30.44;50.86;;
67310;Laerm;65444;51.438;5.982;2024-01-15T01:35:33;37.81;31.00;47.57;;
67310;Laerm;65444;51.438;5.982;2024-01-15T01:35:55;32.71;30.58;41.49;;
67310;Laerm;65444;51.438;5.982;2024-01-15T01:36:35;33.17;30.65;44.99;;
67310;Laerm;65444;51.438;5.982;2024-01-15T01:37:49;35.94;29.80;49.03;;
67310;Laerm;65444;51.438;5.982;2024-01-15T01:38:00;34.48;30.48;47.22;;
67310;Laerm;65444;51.438;5.982;2024-01-15T01:39:01;37.11;29.83;53.50;;
67310;Laerm;65444;51.438;5.982;2024-01-15T01:39:21;32.00;30.71;34.64;;
67310;Laerm;65444;51.438;5.982;2024-01-15T01:39:38;45.19;30.20;60.01;;
67310;Laerm;65444;51.438;5.982;2024-01-15T01:40:11;32.64;30.22;42.32;;
67310;Laerm;65444;51.438;5.982;2024-01-15T01:40:35;35.72;30.05;51.23;;
67310;Laerm;65444;51.438;5.982;2024-01-15T01:40:51;32.00;29.61;39.49;;
67310;Laerm;65444;51.438;5.982;2024-01-15T01:41:11;43.47;31.09;60.51;;
67310;Laerm;65444;51.438;5.982;2024-01-15T01:41:22;39.93;30.44;51.46;;
67310;Laerm;65444;51.438;5.982;2024-01-15T01:41:45;33.76;30.36;47.03;;
67310;Laerm;65444;51.438;5.982;2024-01-15T01:41:58;32.18;30.13;40.24;;
67310;Laerm;65444;51.438;5.982;2024-01-15T01:42:19;32.03;29.87;36.59;;
67310;Laerm;65444;51.438;5.982;2024-01-15T01:42:33;32.78;30.34;42.85;;
67310;Laerm;65444;51.438;5.982;2024-01-15T01:42:47;34.45;30.56;42.98;;
67310;Laerm;65444;51.438;5.982;2024-01-15T01:43:46;35.16;30.27;46.92;;
67310;Laerm;65444;51.438;5.982;2024-01-15T01:44:20;34.36;29.83;47.49;;
67310;Laerm;65444;51.438;5.982;2024-01-15T01:44:35;32.70;30.65;36.20;;
67310;Laerm;65444;51.438;5.982;2024-01-15T01:44:47;33.21;30.45;42.53;;
67310;Laerm;65444;51.438;5.982;2024-01-15T01:44:58;32.04;30.14;37.70;;
67310;Laerm;65444;51.438;5.982;2024-01-15T01:45:08;41.34;30.31;58.85;;
67310;Laerm;65444;51.438;5.982;2024-01-15T01:45:22;32.00;30.32;37.46;;
67310;Laerm;65444;51.438;5.982;2024-01-15T01:45:36;33.04;29.98;43.96;;
67310;Laerm;65444;51.438;5.982;2024-01-15T01:46:04;32.71;29.70;44.57;;
67310;Laerm;65444;51.438;5.982;2024-01-15T01:46:15;32.27;30.54;39.02;;
67310;Laerm;65444;51.438;5.982;2024-01-15T01:46:28;32.21;30.62;35.13;;
67310;Laerm;65444;51.438;5.982;2024-01-15T01:46:39;50.06;29.65;67.08;;
67310;Laerm;65444;51.438;5.982;2024-01-15T01:47:00;45.77;31.54;57.28;;
67310;Laerm;65444;51.438;5.982;2024-01-15T01:47:13;44.88;30.90;65.67;;
67310;Laerm;65444;51.438;5.982;2024-01-15T01:47:24;34.48;30.39;45.26;;
67310;Laerm;65444;51.438;5.982;2024-01-15T01:47:48;32.90;30.62;40.71;;
67310;Laerm;65444;51.438;5.982;2024-01-15T01:47:59;33.31;30.73;41.25;;
67310;Laerm;65444;51.438;5.982;2024-01-15T01:48:23;32.76;30.42;40.47;;
67310;Laerm;65444;51.438;5.982;2024-01-15T01:48:40;32.23;30.41;35.11;;
67310;Laerm;65444;51.438;5.982;2024-01-15T01:48:59;33.16;30.05;41.64;;
67310;Laerm;65444;51.438;5.982;2024-01-15T01:49:36;38.72;30.55;50.93;;
67310;Laerm;65444;51.438;5.982;2024-01-15T01:49:48;36.05;30.46;48.67;;
67310;Laerm;65444;51.438;5.982;2024-01-15T01:50:04;32.20;30.09;35.87;;
67310;Laerm;65444;51.438;5.982;2024-01-15T01:50:22;32.26;30.53;37.10;;
67310;Laerm;65444;51.438;5.982;2024-01-15T01:50:34;32.18;30.04;39.88;;
67310;Laerm;65444;51.438;5.982;2024-01-15T01:50:45;32.51;31.13;34.23;;
67310;Laerm;65444;51.438;5.982;2024-01-15T01:51:02;33.40;30.79;45.19;;
67310;Laerm;65444;51.438;5.982;2024-01-15T01:51:14;37.83;30.64;54.80;;
67310;Laerm;65444;51.438;5.982;2024-01-15T01:51:34;35.15;30.71;46.53;;
67310;Laerm;65444;51.438;5.982;2024-01-15T01:52:01;33.49;30.56;40.96;;
67310;Laerm;65444;51.438;5.982;2024-01-15T01:52:13;32.87;30.50;38.03;;
67310;Laerm;65444;51.438;5.982;2024-01-15T01:52:24;32.64;30.73;36.05;;
67310;Laerm;65444;51.438;5.982;2024-01-15T01:53:25;34.44;30.44;49.91;;
67310;Laerm;65444;51.438;5.982;2024-01-15T01:53:46;32.47;30.66;35.08;;
67310;Laerm;65444;51.438;5.982;2024-01-15T01:54:18;41.90;30.21;55.83;;
67310;Laerm;65444;51.438;5.982;2024-01-15T01:55:16;35.26;30.37;50.18;;
67310;Laerm;65444;51.438;5.982;2024-01-15T01:55:32;39.20;30.47;56.19;;
67310;Laerm;65444;51.438;5.982;2024-01-15T01:59:56;37.40;30.46;54.45;;
67310;Laerm;65444;51.438;5.982;2024-01-15T02:00:43;40.07;30.73;59.20;;
67310;Laerm;65444;51.438;5.982;2024-01-15T02:00:55;43.31;31.74;57.97;;
67310;Laerm;65444;51.438;5.982;2024-01-15T02:01:06;36.01;31.63;44.99;;
67310;Laerm;65444;51.438;5.982;2024-01-15T02:01:17;33.11;30.94;40.03;;
67310;Laerm;65444;51.438;5.982;2024-01-15T02:01:29;36.71;31.21;49.24;;
67310;Laerm;65444;51.438;5.982;2024-01-15T02:01:46;32.90;30.90;36.68;;
67310;Laerm;65444;51.438;5.982;2024-01-15T02:01:57;32.28;30.81;34.14;;
67310;Laerm;65444;51.438;5.982;2024-01-15T02:02:07;38.30;30.66;55.74;;
67310;Laerm;65444;51.438;5.982;2024-01-15T02:02:18;34.76;31.15;46.97;;
67310;Laerm;65444;51.438;5.982;2024-01-15T02:02:28;40.85;31.56;51.43;;
67310;Laerm;65444;51.438;5.982;2024-01-15T02:02:42;33.51;31.14;42.85;;
67310;Laerm;65444;51.438;5.982;2024-01-15T02:02:53;39.14;31.76;52.45;;
67310;Laerm;65444;51.438;5.982;2024-01-15T02:03:03;34.66;31.66;46.69;;
67310;Laerm;65444;51.438;5.982;2024-01-15T02:03:14;35.42;32.01;45.44;;
67310;Laerm;65444;51.438;5.982;2024-01-15T02:03:25;33.80;31.36;40.33;;
67310;Laerm;65444;51.438;5.982;2024-01-15T02:03:39;32.59;31.12;36.60;;
67310;Laerm;65444;51.438;5.982;2024-01-15T02:03:50;32.72;31.13;36.54;;
67310;Laerm;65444;51.438;5.982;2024-01-15T02:04:01;38.04;31.17;50.70;;
67310;Laerm;65444;51.438;5.982;2024-01-15T02:04:14;34.27;30.52;44.07;;
67310;Laerm;65444;51.438;5.982;2024-01-15T02:04:25;32.38;30.62;33.89;;
67310;Laerm;65444;51.438;5.982;2024-01-15T02:04:35;32.37;30.69;35.04;;
67310;Laerm;65444;51.438;5.982;2024-01-15T02:04:47;32.95;30.87;38.36;;
67310;Laerm;65444;51.438;5.982;2024-01-15T02:04:59;33.30;31.54;41.97;;
67310;Laerm;65444;51.438;5.982;2024-01-15T02:05:09;37.62;31.82;48.01;;
67310;Laerm;65444;51.438;5.982;2024-01-15T02:06:14;38.36;31.06;58.48;;
67310;Laerm;65444;51.438;5.982;2024-01-15T02:06:28;33.03;31.01;37.68;;
67310;Laerm;65444;51.438;5.982;2024-01-15T02:07:16;35.18;31.01;45.61;;
67310;Laerm;65444;51.438;5.982;2024-01-15T02:07:28;36.34;31.34;46.05;;
67310;Laerm;65444;51.438;5.982;2024-01-15T02:07:39;46.34;32.26;60.33;;
67310;Laerm;65444;51.438;5.982;2024-01-15T02:07:50;33.23;30.54;39.75;;
67310;Laerm;65444;51.438;5.982;2024-01-15T02:08:03;36.21;30.98;51.44;;
67310;Laerm;65444;51.438;5.982;2024-01-15T02:08:13;32.34;30.89;35.16;;
67310;Laerm;65444;51.438;5.982;2024-01-15T02:08:24;34.43;31.73;44.48;;
67310;Laerm;65444;51.438;5.982;2024-01-15T02:08:37;34.94;31.67;47.67;;
67310;Laerm;65444;51.438;5.982;2024-01-15T02:08:47;34.81;31.42;43.38;;
67310;Laerm;65444;51.438;5.982;2024-01-15T02:08:58;34.84;31.75;44.00;;
67310;Laerm;65444;51.438;5.982;2024-01-15T02:09:10;41.68;32.10;54.82;;
67310;Laerm;65444;51.438;5.982;2024-01-15T02:09:21;35.28;31.13;44.39;;
67310;Laerm;65444;51.438;5.982;2024-01-15T02:09:32;32.85;31.14;35.27;;
67310;Laerm;65444;51.438;5.982;2024-01-15T02:09:42;34.74;31.19;48.78;;
67310;Laerm;65444;51.438;5.982;2024-01-15T02:09:54;36.28;32.21;49.14;;
67310;Laerm;65444;51.438;5.982;2024-01-15T02:10:05;38.17;32.18;48.40;;
67310;Laerm;65444;51.438;5.982;2024-01-15T02:10:16;34.31;31.69;41.88;;
67310;Laerm;65444;51.438;5.982;2024-01-15T02:10:28;35.66;31.97;46.40;;
67310;Laerm;65444;51.438;5.982;2024-01-15T02:10:38;41.09;32.05;54.78;;
67310;Laerm;65444;51.438;5.982;2024-01-15T02:10:49;34.88;32.31;39.31;;
67310;Laerm;65444;51.438;5.982;2024-01-15T02:11:01;36.69;32.79;41.67;;
67310;Laerm;65444;51.438;5.982;2024-01-15T02:11:11;38.58;33.48;50.12;;
67310;Laerm;65444;51.438;5.982;2024-01-15T02:11:22;35.61;32.71;44.68;;
67310;Laerm;65444;51.438;5.982;2024-01-15T02:11:34;36.51;32.35;50.31;;
67310;Laerm;65444;51.438;5.982;2024-01-15T02:11:47;34.04;31.50;40.58;;
67310;Laerm;65444;51.438;5.982;2024-01-15T02:11:58;33.30;31.04;36.72;;
67310;Laerm;65444;51.438;5.982;2024-01-15T02:12:10;35.82;31.20;50.63;;
67310;Laerm;65444;51.438;5.982;2024-01-15T02:12:21;38.13;32.57;49.76;;
67310;Laerm;65444;51.438;5.982;2024-01-15T02:12:32;35.49;32.63;41.41;;
67310;Laerm;65444;51.438;5.982;2024-01-15T02:12:44;40.84;32.86;59.03;;
67310;Laerm;65444;51.438;5.982;2024-01-15T02:12:55;36.26;32.17;47.41;;
67310;Laerm;65444;51.438;5.982;2024-01-15T02:13:06;45.39;33.75;60.92;;
67310;Laerm;65444;51.438;5.982;2024-01-15T02:13:18;35.36;32.14;46.84;;
67310;Laerm;65444;51.438;5.982;2024-01-15T02:13:29;42.82;32.47;58.07;;
67310;Laerm;65444;51.438;5.982;2024-01-15T02:13:39;36.20;32.19;43.36;;
67310;Laerm;65444;51.438;5.982;2024-01-15T02:13:52;36.21;32.01;44.40;;
67310;Laerm;65444;51.438;5.982;2024-01-15T02:14:03;45.81;32.09;58.94;;
67310;Laerm;65444;51.438;5.982;2024-01-15T02:14:14;34.46;30.13;42.19;;
67310;Laerm;65444;51.438;5.982;2024-01-15T02:14:31;34.11;31.80;37.19;;
67310;Laerm;65444;51.438;5.982;2024-01-15T02:14:41;36.00;33.75;42.20;;
67310;Laerm;65444;51.438;5.982;2024-01-15T02:14:51;34.46;31.74;39.49;;